Time;durP1;ratioP1;P1;durP2;ratioP2;P2;SDS_P1;SDS_P2;PMS_P1;PMS_P2;Temp;Humidity;BMP_temperature;BMP_pressure;BME280_temperature;BME280_humidity;BME280_pressure;Samples;Min_cycle;Max_cycle;Signal;HPM_P1;HPM_P2
2023/03/03 00:04:52;;;;;;;1999.90;999.90;;;2.50;99.90;;;;;;6732175;88;20166;-79
2023/03/03 00:14:52;;;;;;;1999.90;999.90;;;2.30;99.90;;;;;;6761254;88;20210;-78
2023/03/03 00:24:53;;;;;;;1999.90;999.90;;;2.20;99.90;;;;;;6759270;88;20216;-78
2023/03/03 00:35:00;;;;;;;1999.90;999.90;;;2.10;99.90;;;;;;6749390;88;20222;-78
2023/03/03 00:45:04;;;;;;;1999.90;999.90;;;2.10;99.90;;;;;;6741405;88;20242;-78
2023/03/03 00:55:06;;;;;;;1999.90;999.90;;;1.90;99.90;;;;;;6753037;88;20208;-78
2023/03/03 01:05:11;;;;;;;1999.90;999.90;;;2.00;99.90;;;;;;6757775;88;20191;-81
2023/03/03 01:15:14;;;;;;;1999.90;999.90;;;1.80;99.90;;;;;;6760560;88;20793;-79
2023/03/03 01:25:14;;;;;;;1999.90;999.90;;;1.70;99.90;;;;;;6744309;88;20655;-79
2023/03/03 01:35:16;;;;;;;1999.90;999.90;;;1.60;99.90;;;;;;6740188;88;20212;-77
2023/03/03 01:45:25;;;;;;;1999.90;999.90;;;1.60;99.90;;;;;;6739519;88;20527;-78
2023/03/03 01:55:32;;;;;;;1999.90;999.90;;;1.40;99.90;;;;;;6723552;88;20218;-78
2023/03/03 02:05:34;;;;;;;1999.90;999.90;;;1.30;99.90;;;;;;6733491;88;20229;-78
2023/03/03 02:15:35;;;;;;;1999.90;999.90;;;1.10;99.90;;;;;;6738816;88;20706;-77
2023/03/03 02:25:44;;;;;;;1999.90;999.90;;;1.00;99.90;;;;;;6739285;88;20207;-78
2023/03/03 02:35:44;;;;;;;1999.90;999.90;;;1.00;99.90;;;;;;6738999;88;20554;-78
2023/03/03 02:46:05;;;;;;;1999.90;999.90;;;0.80;99.90;;;;;;6738597;76;20314;-76
2023/03/03 02:56:08;;;;;;;1999.90;999.90;;;0.60;99.90;;;;;;6730678;87;20217;-76
2023/03/03 03:06:09;;;;;;;1999.90;999.90;;;0.50;99.90;;;;;;6727705;88;20158;-77
2023/03/03 03:16:09;;;;;;;1999.90;999.90;;;0.30;99.90;;;;;;6728434;88;20197;-77
2023/03/03 03:26:11;;;;;;;1999.90;999.90;;;0.10;99.90;;;;;;6737617;88;20184;-76
2023/03/03 03:36:11;;;;;;;1999.90;999.90;;;0.00;99.90;;;;;;6732928;88;20711;-77
2023/03/03 03:46:12;;;;;;;1999.90;999.90;;;-0.10;99.90;;;;;;6735435;88;20214;-76
2023/03/03 03:56:12;;;;;;;1999.90;999.90;;;-0.20;99.90;;;;;;6742520;88;20181;-78
2023/03/03 04:06:13;;;;;;;1999.90;999.90;;;-0.20;99.90;;;;;;6735787;88;20203;-77
2023/03/03 04:16:14;;;;;;;1999.90;999.90;;;-0.30;99.90;;;;;;6726669;88;20527;-75
2023/03/03 04:26:14;;;;;;;1999.90;999.90;;;-0.30;99.90;;;;;;6741173;88;20220;-76
2023/03/03 04:36:15;;;;;;;1999.90;999.90;;;-0.30;99.90;;;;;;6738876;88;20788;-77
2023/03/03 04:46:15;;;;;;;1999.90;999.90;;;-0.30;99.90;;;;;;6738674;88;20619;-77
2023/03/03 04:56:16;;;;;;;1999.90;999.90;;;-0.40;99.90;;;;;;6739824;88;20209;-77
2023/03/03 05:06:17;;;;;;;1999.90;999.90;;;-0.40;99.90;;;;;;6732508;88;20234;-77
2023/03/03 05:16:18;;;;;;;1999.90;999.90;;;-0.30;99.90;;;;;;6738007;88;20282;-77
2023/03/03 05:26:18;;;;;;;1999.90;999.90;;;0.10;99.90;;;;;;6739723;88;20179;-76
2023/03/03 05:36:19;;;;;;;1999.90;999.90;;;0.30;99.90;;;;;;6738689;88;20251;-78
2023/03/03 05:46:20;;;;;;;1999.90;999.90;;;0.40;99.90;;;;;;6735221;88;20711;-78
2023/03/03 05:56:20;;;;;;;1999.90;999.90;;;0.70;99.90;;;;;;6738427;88;20270;-76
2023/03/03 06:06:21;;;;;;;1999.90;999.90;;;0.70;99.90;;;;;;6727952;88;20205;-77
2023/03/03 06:16:21;;;;;;;1999.90;999.90;;;0.90;99.90;;;;;;6732312;88;20234;-75
2023/03/03 06:26:25;;;;;;;1999.90;999.90;;;0.80;99.90;;;;;;6725588;88;20515;-76
2023/03/03 06:36:26;;;;;;;1999.90;999.90;;;1.00;99.90;;;;;;6734522;88;20208;-79
2023/03/03 06:46:27;;;;;;;1999.90;999.90;;;1.00;99.90;;;;;;6736207;88;20193;-78
2023/03/03 06:56:28;;;;;;;1999.90;999.90;;;1.10;99.90;;;;;;6732609;88;20238;-77
2023/03/03 07:06:31;;;;;;;1999.90;999.90;;;1.20;99.90;;;;;;6726969;88;20266;-77
2023/03/03 07:16:31;;;;;;;1999.90;999.90;;;1.30;99.90;;;;;;6730473;88;20194;-77
2023/03/03 07:26:55;;;;;;;1999.90;999.90;;;1.40;99.90;;;;;;6733745;88;20753;-77
2023/03/03 07:37:09;;;;;;;1999.90;999.90;;;1.20;99.90;;;;;;6734585;88;20196;-77
2023/03/03 07:47:37;;;;;;;1999.90;999.90;;;1.10;99.90;;;;;;6734604;88;20201;-77
2023/03/03 07:57:43;;;;;;;1999.90;999.90;;;1.20;99.90;;;;;;6716956;88;20311;-76
2023/03/03 08:07:44;;;;;;;1999.90;999.90;;;1.30;99.90;;;;;;6717335;88;20181;-77
2023/03/03 08:17:51;;;;;;;1999.90;999.90;;;1.30;99.90;;;;;;6716796;88;20888;-77
2023/03/03 08:28:02;;;;;;;1999.90;999.90;;;1.40;99.90;;;;;;6717037;88;20208;-77
2023/03/03 08:38:04;;;;;;;1999.90;999.90;;;1.50;99.90;;;;;;6724207;77;20365;-74
2023/03/03 08:48:04;;;;;;;1999.90;999.90;;;1.60;99.90;;;;;;6739262;88;20720;-75
2023/03/03 08:58:05;;;;;;;1999.90;999.90;;;1.70;99.90;;;;;;6734481;88;20723;-74
2023/03/03 09:08:07;;;;;;;1999.90;999.90;;;1.80;99.90;;;;;;6735268;88;20339;-75
2023/03/03 09:18:07;;;;;;;1999.90;999.90;;;1.90;99.90;;;;;;6732508;88;20203;-73
2023/03/03 09:28:27;;;;;;;1999.90;999.90;;;2.00;99.90;;;;;;6733908;87;20201;-74
2023/03/03 09:38:32;;;;;;;1999.90;999.90;;;2.30;99.90;;;;;;6730561;88;20274;-75
2023/03/03 09:48:56;;;;;;;1999.90;999.90;;;2.20;99.90;;;;;;6736449;88;20720;-74
2023/03/03 09:59:05;;;;;;;1999.90;999.90;;;2.20;99.90;;;;;;6744370;87;20197;-74
2023/03/03 10:09:40;;;;;;;1999.90;999.90;;;2.40;99.90;;;;;;6745584;88;20276;-74
2023/03/03 10:19:47;;;;;;;1999.90;999.90;;;2.50;99.90;;;;;;6738450;88;20240;-74
2023/03/03 10:29:55;;;;;;;1999.90;999.90;;;2.50;99.90;;;;;;6751286;88;20161;-77
2023/03/03 10:40:16;;;;;;;1999.90;999.90;;;2.30;99.90;;;;;;6747699;88;20239;-74
2023/03/03 10:50:21;;;;;;;1999.90;999.90;;;2.50;99.90;;;;;;6730625;88;20250;-75
2023/03/03 11:00:34;;;;;;;1999.90;999.90;;;2.60;99.90;;;;;;6727523;88;20205;-75
2023/03/03 11:11:06;;;;;;;1999.90;999.90;;;2.80;99.90;;;;;;6734514;88;20213;-75
2023/03/03 11:21:17;;;;;;;1999.90;999.90;;;3.10;99.90;;;;;;6734525;87;20283;-75
2023/03/03 11:31:45;;;;;;;1999.90;999.90;;;3.20;99.90;;;;;;6734021;88;20676;-75
2023/03/03 11:42:00;;;;;;;1999.90;999.90;;;3.40;99.90;;;;;;6746606;88;20715;-75
2023/03/03 11:52:28;;;;;;;1999.90;999.90;;;3.80;99.90;;;;;;6747352;88;20245;-74
2023/03/03 12:02:42;;;;;;;;;;;3.70;99.90;;;;;;6737919;88;20218;-73
2023/03/03 12:12:50;;;;;;;1999.90;999.90;;;3.70;99.90;;;;;;6736414;87;20222;-73
2023/03/03 12:23:12;;;;;;;1999.90;999.90;;;4.00;99.90;;;;;;6738375;87;20653;-73
2023/03/03 12:33:21;;;;;;;1999.90;999.90;;;4.10;99.90;;;;;;6734984;88;20274;-73
2023/03/03 12:43:43;;;;;;;1999.90;999.90;;;4.30;99.90;;;;;;6733409;88;20226;-74
2023/03/03 12:53:52;;;;;;;1999.90;999.90;;;4.60;99.90;;;;;;6736344;88;20270;-73
2023/03/03 13:04:15;;;;;;;1999.90;999.90;;;4.80;99.90;;;;;;6733686;88;20204;-72
2023/03/03 13:14:41;;;;;;;1999.90;999.90;;;5.20;99.90;;;;;;6737008;88;20190;-75
2023/03/03 13:24:57;;;;;;;1999.90;999.90;;;5.10;99.90;;;;;;6734824;87;20208;-75
2023/03/03 13:35:05;;;;;;;1999.90;999.90;;;7.10;99.90;;;;;;6729200;88;20340;-74
2023/03/03 13:45:32;;;;;;;1999.90;999.90;;;7.40;99.90;;;;;;6735608;87;20609;-73
2023/03/03 13:55:52;;;;;;;1999.90;999.90;;;8.20;99.90;;;;;;6732758;88;20306;-76
2023/03/03 14:06:03;;;;;;;1999.90;999.90;;;7.30;99.90;;;;;;6728905;88;20252;-74
2023/03/03 14:16:08;;;;;;;1999.90;999.90;;;8.60;99.90;;;;;;6731300;88;20770;-74
2023/03/03 14:26:10;;;;;;;1999.90;999.90;;;9.30;99.90;;;;;;6737252;88;20267;-72
2023/03/03 14:36:12;;;;;;;1999.90;999.90;;;9.00;99.90;;;;;;6746597;88;20271;-73
2023/03/03 14:46:34;;;;;;;1999.90;999.90;;;7.80;99.90;;;;;;6761704;76;20264;-78
2023/03/03 14:56:55;;;;;;;1999.90;999.90;;;7.10;99.90;;;;;;6740571;88;20972;-78
2023/03/03 15:06:57;;;;;;;1999.90;999.90;;;6.80;99.90;;;;;;6740516;88;20644;-77
2023/03/03 15:17:17;;;;;;;1999.90;999.90;;;6.20;99.90;;;;;;6749347;88;20258;-78
2023/03/03 15:27:25;;;;;;;1999.90;999.90;;;5.80;99.90;;;;;;6761325;88;20211;-78
2023/03/03 15:37:57;;;;;;;1999.90;999.90;;;6.00;99.90;;;;;;6743799;88;20276;-79
2023/03/03 15:48:24;;;;;;;1999.90;999.90;;;6.00;99.90;;;;;;6744128;88;20623;-79
2023/03/03 15:58:43;;;;;;;1999.90;999.90;;;5.90;99.90;;;;;;6744245;88;20172;-79
2023/03/03 16:09:02;;;;;;;1999.90;999.90;;;5.40;99.90;;;;;;6754576;88;20568;-78
2023/03/03 16:19:36;;;;;;;1999.90;999.90;;;4.90;99.90;;;;;;6744680;88;20671;-76
2023/03/03 16:29:52;;;;;;;1999.90;999.90;;;4.80;99.90;;;;;;6744822;88;20308;-80
2023/03/03 16:40:01;;;;;;;1999.90;999.90;;;4.20;99.90;;;;;;6744393;88;20725;-77
2023/03/03 16:50:18;;;;;;;1999.90;999.90;;;4.00;99.90;;;;;;6744796;88;20825;-79
2023/03/03 17:00:21;;;;;;;1999.90;999.90;;;3.70;99.90;;;;;;6744525;88;20196;-78
2023/03/03 17:10:43;;;;;;;1999.90;999.90;;;3.50;99.90;;;;;;6744633;88;20250;-77
2023/03/03 17:20:50;;;;;;;1999.90;999.90;;;3.10;99.90;;;;;;6744145;88;20198;-78
2023/03/03 17:31:18;;;;;;;1999.90;999.90;;;2.80;99.90;;;;;;6745024;88;20209;-76
2023/03/03 17:41:33;;;;;;;1999.90;999.90;;;2.60;99.90;;;;;;6745366;88;20181;-77
2023/03/03 17:52:12;;;;;;;1999.90;999.90;;;2.50;99.90;;;;;;6745650;88;20704;-76
2023/03/03 18:02:35;;;;;;;1999.90;999.90;;;2.30;99.90;;;;;;6741279;88;20193;-78
2023/03/03 18:13:01;;;;;;;1999.90;999.90;;;2.20;99.90;;;;;;6743659;88;20862;-77
2023/03/03 18:23:40;;;;;;;1999.90;999.90;;;2.00;99.90;;;;;;6744376;88;20256;-80
2023/03/03 18:33:58;;;;;;;1999.90;999.90;;;1.90;99.90;;;;;;6753102;88;20190;-79
2023/03/03 18:44:02;;;;;;;1999.90;999.90;;;1.90;99.90;;;;;;6758685;88;20215;-78
2023/03/03 18:54:16;;;;;;;1999.90;999.90;;;1.70;99.90;;;;;;6765980;88;20247;-78
2023/03/03 19:04:19;;;;;;;1999.90;999.90;;;1.70;99.90;;;;;;6754239;88;20182;-76
2023/03/03 19:14:24;;;;;;;1999.90;999.90;;;1.60;99.90;;;;;;6750661;88;20196;-78
2023/03/03 19:24:32;;;;;;;1999.90;999.90;;;1.50;99.90;;;;;;6745173;88;20192;-79
2023/03/03 19:34:48;;;;;;;1999.90;999.90;;;1.40;99.90;;;;;;6751381;88;20674;-78
2023/03/03 19:45:10;;;;;;;1999.90;999.90;;;1.30;99.90;;;;;;6759879;88;20188;-78
2023/03/03 19:55:21;;;;;;;1999.90;999.90;;;1.30;99.90;;;;;;6751029;88;20177;-78
2023/03/03 20:05:42;;;;;;;1999.90;999.90;;;1.20;99.90;;;;;;6762651;88;20215;-79
2023/03/03 20:15:46;;;;;;;1999.90;999.90;;;1.20;99.90;;;;;;6749545;88;20196;-79
2023/03/03 20:25:52;;;;;;;1999.90;999.90;;;1.20;99.90;;;;;;6759639;88;20209;-79
2023/03/03 20:36:15;;;;;;;1999.90;999.90;;;1.10;99.90;;;;;;6762042;88;20273;-78
2023/03/03 20:46:28;;;;;;;1999.90;999.90;;;1.30;99.90;;;;;;6717329;76;20201;-75
2023/03/03 20:57:06;;;;;;;1999.90;999.90;;;1.10;99.90;;;;;;6696862;88;20613;-75
2023/03/03 21:07:07;;;;;;;1999.90;999.90;;;1.00;99.90;;;;;;6700414;88;20797;-76
2023/03/03 21:17:25;;;;;;;1999.90;999.90;;;0.80;99.90;;;;;;6708440;88;20205;-77
2023/03/03 21:27:31;;;;;;;1999.90;999.90;;;0.70;99.90;;;;;;6707198;88;21016;-75
2023/03/03 21:37:53;;;;;;;1999.90;999.90;;;0.70;99.90;;;;;;6701006;88;20320;-75
2023/03/03 21:47:54;;;;;;;1999.90;999.90;;;0.50;99.90;;;;;;6696517;88;20221;-75
2023/03/03 21:57:54;;;;;;;1999.90;999.90;;;0.70;99.90;;;;;;6693883;88;20171;-73
2023/03/03 22:07:55;;;;;;;1999.90;999.90;;;0.90;99.90;;;;;;6693456;88;20378;-75
2023/03/03 22:17:55;;;;;;;1999.90;999.90;;;1.00;99.90;;;;;;6693739;88;20183;-74
2023/03/03 22:27:56;;;;;;;1999.90;999.90;;;1.10;99.90;;;;;;6693763;88;20653;-72
2023/03/03 22:37:56;;;;;;;1999.90;999.90;;;1.20;99.90;;;;;;6695541;88;21307;-73
2023/03/03 22:47:57;;;;;;;1999.90;999.90;;;1.30;99.90;;;;;;6694800;88;20356;-74
2023/03/03 22:57:57;;;;;;;1999.90;999.90;;;1.10;99.90;;;;;;6692610;88;20319;-74
2023/03/03 23:07:58;;;;;;;1999.90;999.90;;;1.30;99.90;;;;;;6693599;88;20785;-74
2023/03/03 23:17:59;;;;;;;1999.90;999.90;;;1.40;99.90;;;;;;6692039;88;20190;-74
2023/03/03 23:27:59;;;;;;;1999.90;999.90;;;1.20;99.90;;;;;;6692567;88;20194;-73
2023/03/03 23:38:01;;;;;;;1999.90;999.90;;;1.30;99.90;;;;;;6693629;88;20203;-75
2023/03/03 23:48:01;;;;;;;1999.90;999.90;;;1.30;99.90;;;;;;6697014;88;20264;-75
2023/03/03 23:58:03;;;;;;;1999.90;999.90;;;1.50;99.90;;;;;;6691860;88;20198;-75
